createdAt,value
2023-04-17T00:02:09.639Z,9.8
2023-04-17T00:08:03.461Z,9.6
2023-04-17T00:14:10.032Z,9.6
2023-04-17T00:20:02.325Z,9.5
2023-04-17T00:25:37.653Z,9.4
2023-04-17T00:30:59.380Z,9.4
2023-04-17T00:36:51.155Z,9.3
2023-04-17T00:42:42.538Z,9.4
2023-04-17T00:48:34.354Z,9.4
2023-04-17T00:54:26.006Z,9.4
2023-04-17T01:00:18.172Z,9.3
2023-04-17T01:06:12.919Z,9.1
2023-04-17T01:11:49.098Z,9.1
2023-04-17T01:17:24.776Z,9
2023-04-17T01:23:16.766Z,8.9
2023-04-17T01:29:07.806Z,8.9
2023-04-17T01:34:59.454Z,8.8
2023-04-17T01:40:35.697Z,8.8
2023-04-17T01:46:27.358Z,8.8
2023-04-17T01:52:03.724Z,8.8
2023-04-17T01:57:40.181Z,8.8
2023-04-17T02:03:32.580Z,8.8
2023-04-17T02:09:09.935Z,8.9
2023-04-17T02:15:01.467Z,9
2023-04-17T02:20:37.857Z,9
2023-04-17T02:26:14.328Z,8.9
2023-04-17T02:32:06.497Z,8.9
2023-04-17T02:37:57.559Z,9
2023-04-17T02:43:48.910Z,9.2
2023-04-17T02:49:26.150Z,9.1
2023-04-17T02:55:17.580Z,9.2
2023-04-17T03:01:08.889Z,9.1
2023-04-17T03:07:02.814Z,9.2
2023-04-17T03:12:54.063Z,9.2
2023-04-17T03:18:48.466Z,9.2
2023-04-17T03:24:40.462Z,9.2
2023-04-17T03:30:16.093Z,9.2
2023-04-17T03:35:54.835Z,9.1
2023-04-17T03:41:47.446Z,9.1
2023-04-17T03:47:23.784Z,9.3
2023-04-17T03:53:00.005Z,9.6
2023-04-17T03:58:51.610Z,9.6
2023-04-17T04:04:29.264Z,9.4
2023-04-17T04:10:20.503Z,9.6
2023-04-17T04:15:57.220Z,9.4
2023-04-17T04:21:33.464Z,9.4
2023-04-17T04:27:26.049Z,9.6
2023-04-17T04:33:04.212Z,9.6
2023-04-17T04:38:27.872Z,9.5
2023-04-17T04:44:04.080Z,9.6
2023-04-17T04:49:25.621Z,9.6
2023-04-17T04:54:45.462Z,9.6
2023-04-17T05:00:20.957Z,9.6
2023-04-17T05:06:00.833Z,9.8
2023-04-17T05:11:36.921Z,9.9
2023-04-17T05:17:30.173Z,9.9
2023-04-17T05:23:22.346Z,10.1
2023-04-17T05:28:58.053Z,10.1
2023-04-17T05:34:34.604Z,10.2
2023-04-17T05:40:14.601Z,10.4
2023-04-17T05:45:49.739Z,10.6
2023-04-17T05:51:26.290Z,10.7
2023-04-17T05:57:03.337Z,10.7
2023-04-17T06:02:54.414Z,10.8
2023-04-17T06:08:34.525Z,10.8
2023-04-17T06:14:13.075Z,11.1
2023-04-17T06:19:49.194Z,11.1
2023-04-17T06:25:26.925Z,11.3
2023-04-17T06:31:02.995Z,11.4
2023-04-17T06:36:47.636Z,11.4
2023-04-17T06:42:08.184Z,11.4
2023-04-17T06:47:45.149Z,11.6
2023-04-17T06:53:21.135Z,11.8
2023-04-17T06:58:56.565Z,11.8
2023-04-17T07:04:38.456Z,11.7
2023-04-17T07:09:59.066Z,12.1
2023-04-17T07:15:19.928Z,12.6
2023-04-17T07:20:58.191Z,13.1
2023-04-17T07:26:34.507Z,13.4
2023-04-17T07:32:11.259Z,12.9
2023-04-17T07:37:48.480Z,13.1
2023-04-17T07:43:27.563Z,12.8
2023-04-17T07:48:51.840Z,12.7
2023-04-17T07:54:31.487Z,13.1
2023-04-17T08:00:10.283Z,13.3
2023-04-17T08:05:33.928Z,13
2023-04-17T08:11:13.462Z,13.3
2023-04-17T08:16:44.964Z,13.4
2023-04-17T08:22:21.672Z,13.6
2023-04-17T08:28:01.775Z,13.8
2023-04-17T08:34:06.520Z,13.7
2023-04-17T08:39:49.846Z,14
2023-04-17T08:45:43.667Z,13.6
2023-04-17T08:51:35.722Z,13.3
2023-04-17T09:02:34.472Z,13.6
2023-04-17T09:08:12.799Z,13.4
2023-04-17T09:14:04.224Z,14
2023-04-17T09:19:27.008Z,14.3
2023-04-17T09:25:03.249Z,13.9
2023-04-17T09:30:24.440Z,14.5
2023-04-17T09:35:46.084Z,15.1
2023-04-17T09:41:40.731Z,14.9
2023-04-17T09:47:32.377Z,14.5
2023-04-17T09:53:25.761Z,12.7
2023-04-17T09:59:02.437Z,12.1
2023-04-17T10:04:56.349Z,12.3
2023-04-17T10:10:48.952Z,12.5
2023-04-17T10:16:40.688Z,12.8
2023-04-17T10:22:34.906Z,13.2
2023-04-17T10:28:27.850Z,13.3
2023-04-17T10:34:22.362Z,13.6
2023-04-17T10:40:00.741Z,14.1
2023-04-17T10:45:53.527Z,14.6
2023-04-17T10:51:47.183Z,14.6
2023-04-17T10:57:39.318Z,15.6
2023-04-17T11:03:36.716Z,14.9
2023-04-17T11:09:14.407Z,15.3
2023-04-17T11:15:07.314Z,15
2023-04-17T11:20:44.887Z,15.1
2023-04-17T11:26:21.459Z,15.8
2023-04-17T11:31:42.387Z,15.5
2023-04-17T11:37:20.026Z,15.3
2023-04-17T11:48:33.921Z,14.9
2023-04-17T11:54:25.506Z,15.3
2023-04-17T12:00:18.061Z,15.2
2023-04-17T12:05:57.505Z,15.5
2023-04-17T12:11:50.057Z,15.4
2023-04-17T12:23:18.012Z,16.5
2023-04-17T12:34:31.418Z,16.9
2023-04-17T12:40:24.565Z,16.9
2023-04-17T12:46:15.371Z,16.4
2023-04-17T12:52:06.635Z,16.1
2023-04-17T12:57:57.872Z,15.7
2023-04-17T13:03:52.092Z,16.1
2023-04-17T13:09:28.552Z,15.9
2023-04-17T13:15:04.600Z,15.8
2023-04-17T13:20:58.393Z,15.4
2023-04-17T13:26:49.716Z,15.3
2023-04-17T13:32:43.435Z,15
2023-04-17T13:38:38.474Z,14.9
2023-04-17T13:44:15.177Z,15.4
2023-04-17T13:50:09.121Z,15.5
2023-04-17T13:56:02.335Z,15.3
2023-04-17T14:01:38.253Z,15.3
2023-04-17T14:07:19.078Z,15
2023-04-17T14:13:14.136Z,15.4
2023-04-17T14:19:13.151Z,15.3
2023-04-17T14:24:34.243Z,14.9
2023-04-17T14:30:10.949Z,15.1
2023-04-17T14:35:47.112Z,15.4
2023-04-17T14:47:38.072Z,15.1
2023-04-17T14:53:40.377Z,15.3
2023-04-17T14:59:31.349Z,15.2
2023-04-17T15:05:25.204Z,15.2
2023-04-17T15:11:17.148Z,15.2
2023-04-17T15:16:52.991Z,15
2023-04-17T15:22:45.343Z,15.1
2023-04-17T15:28:36.472Z,15
2023-04-17T15:34:27.704Z,14.8
2023-04-17T15:40:19.771Z,14.7
2023-04-17T15:46:12.803Z,14.6
2023-04-17T15:52:31.520Z,14.6
2023-04-17T15:58:23.331Z,14.5
2023-04-17T16:04:16.145Z,14.4
2023-04-17T16:09:52.551Z,14.4
2023-04-17T16:15:44.203Z,14.3
2023-04-17T16:21:36.178Z,14.1
2023-04-17T16:27:27.754Z,14
2023-04-17T16:33:05.175Z,13.7
2023-04-17T16:38:45.980Z,13.5
2023-04-17T16:44:23.487Z,13.4
2023-04-17T16:50:56.140Z,13.2
2023-04-17T16:56:47.287Z,13.1
2023-04-17T17:02:38.680Z,13
2023-04-17T17:08:16.212Z,12.9
2023-04-17T17:13:21.616Z,12.8
2023-04-17T17:19:13.482Z,12.8
2023-04-17T17:24:49.171Z,12.7
2023-04-17T17:30:40.198Z,12.6
2023-04-17T17:36:28.140Z,12.6
2023-04-17T17:42:05.250Z,12.4
2023-04-17T17:47:58.538Z,12.2
2023-04-17T17:53:52.662Z,12.1
2023-04-17T17:59:42.538Z,11.9
2023-04-17T18:05:21.534Z,11.7
2023-04-17T18:10:42.106Z,11.5
2023-04-17T18:16:19.269Z,10.9
2023-04-17T18:21:55.276Z,10.6
2023-04-17T18:27:30.867Z,10.4
2023-04-17T18:33:07.398Z,10.3
2023-04-17T18:39:02.336Z,10.2
2023-04-17T18:44:37.749Z,10.3
2023-04-17T18:50:14.890Z,10.3
2023-04-17T18:55:56.933Z,10.2
2023-04-17T19:01:18.532Z,10.3
2023-04-17T19:06:41.508Z,10.3
2023-04-17T19:12:34.202Z,10.4
2023-04-17T19:18:26.861Z,10.4
2023-04-17T19:24:19.812Z,10.3
2023-04-17T19:29:57.301Z,10.4
2023-04-17T19:35:50.488Z,10.3
2023-04-17T19:41:24.550Z,10.3
2023-04-17T19:47:19.818Z,10.4
2023-04-17T19:52:42.448Z,10.3
2023-04-17T19:58:20.675Z,10.3
2023-04-17T20:04:01.773Z,10.2
2023-04-17T20:09:38.507Z,10
2023-04-17T20:15:30.637Z,10
2023-04-17T20:21:09.541Z,9.9
2023-04-17T20:27:00.926Z,9.9
2023-04-17T20:32:54.358Z,9.9
2023-04-17T20:38:29.962Z,9.9
2023-04-17T20:44:06.684Z,9.8
2023-04-17T20:50:12.262Z,9.8
2023-04-17T20:56:03.446Z,9.8
2023-04-17T21:02:08.386Z,9.8
2023-04-17T21:13:06.659Z,9.8
2023-04-17T21:18:27.789Z,9.8
2023-04-17T21:24:19.579Z,9.8
2023-04-17T21:29:54.483Z,9.8
2023-04-17T21:35:31.375Z,9.6
2023-04-17T21:41:10.024Z,9.6
2023-04-17T21:47:01.411Z,9.7
2023-04-17T21:52:52.485Z,9.7
2023-04-17T21:58:44.549Z,9.7
2023-04-17T22:04:35.857Z,9.7
2023-04-17T22:10:07.851Z,9.8
2023-04-17T22:15:44.108Z,9.8
2023-04-17T22:21:35.974Z,9.8
2023-04-17T22:27:27.471Z,9.8
2023-04-17T22:33:04.024Z,9.8
2023-04-17T22:38:39.261Z,9.7
2023-04-17T22:44:31.066Z,9.7
2023-04-17T22:49:52.750Z,9.7
2023-04-17T22:55:39.982Z,9.6
2023-04-17T23:01:15.344Z,9.7
2023-04-17T23:07:08.418Z,9.8
2023-04-17T23:12:44.480Z,9.8
2023-04-17T23:18:05.410Z,9.9
2023-04-17T23:23:27.227Z,9.9
2023-04-17T23:29:08.013Z,9.8
2023-04-17T23:34:44.542Z,9.8
2023-04-17T23:40:20.962Z,9.8
2023-04-17T23:45:57.807Z,9.8
2023-04-17T23:51:49.541Z,9.9
2023-04-17T23:57:41.936Z,9.8
